Pferdsfeld, Germany

6:01 AM CET on March 01, 2015 (GMT +0100)
IRHEINLA14 | Change Station
CLOSE
Current Station
Personal Weather Station
Location: Bad Sobernheim, Rheinland-Pfalz
Elevation: 515 ft
Nearby Weather Stations

Elev 515 ft 49.78 °N, 7.65 °E | Updated 3 minutes ago

Light Drizzle
Light Drizzle
38.5 °F
Feels Like 38 °F
N
2.0
Wind Variable Wind from WNW
Gusts 8.0 mph

Today
High -- | Low -- °F
--% Chance of Precip.
Yesterday
High -- | Low -- °F
Precip. -- in
7:13 AM 6:11 PM
Waxing Gibbous, 82% visible
Pressure 29.75 in
Visibility 6.2 miles
Clouds Overcast 1100 ft
Windchill 38 °F
Dew Point 35 °F
Humidity 86%
Rainfall 0.04 in
Snow Depth Not available.
UV 0.0 out of 12
Pollen Not available.
Air Quality Not available.
Flu Activity Not available.
SPECI ETAR 010459Z AUTO 24010G17KT 180V270 9999 -DZ OVC011 03/02 A2975 RMK AO2 RAE0431B0448 $

More Conditions Fewer Conditions

Pressure 29.75 in
Visibility 6.2 miles
Clouds Overcast 1100 ft
Windchill 38 °F
Dew Point 35 °F
Humidity 86%
Rainfall 0.04 in
Snow Depth Not available.
UV 0.0 out of 12
Pollen Not available.
Air Quality Not available.
Flu Activity Not available.
SPECI ETAR 010459Z AUTO 24010G17KT 180V270 9999 -DZ OVC011 03/02 A2975 RMK AO2 RAE0431B0448 $

More Conditions Fewer Conditions

10-Day Weather Forecast

Almanac

Astronomy

Mar. 01, 2015 Rise Set
Actual Time
Civil Twilight
Nautical Twilight
Astronomical Twilight
Moon
Length of Visible Light
Length of Day
Tomorrow will be .
, % of the Moon is Illuminated

Today's Extremes

Country Highs Country Lows

Community

WunderPhotos

Upload Photos

1,801,317 photos uploaded!

WunderBlogs® & News

Nearby

Air Quality

  Air Quality AQ Index Pollutant
Not available.

Snow Depth

Station Depth Elevation

Earthquake Activity

City Distance Mag. Time & Date
Minimum magnitude displayed is 2.5.

Coastal Water Temperatures

Place Temperature

Nearby Weather Stations